createdAt,value
2018-08-20T00:01:46.596Z,11.27
2018-08-20T00:04:15.961Z,10.87
2018-08-20T00:06:55.479Z,10.90
2018-08-20T00:09:37.020Z,10.57
2018-08-20T00:12:08.770Z,8.80
2018-08-20T00:14:38.290Z,10.93
2018-08-20T00:17:07.336Z,9.33
2018-08-20T00:19:37.212Z,8.20
2018-08-20T00:22:06.657Z,8.13
2018-08-20T00:24:35.962Z,10.00
2018-08-20T00:27:05.701Z,11.73
2018-08-20T00:29:39.437Z,12.10
2018-08-20T00:32:08.892Z,9.37
2018-08-20T00:34:38.280Z,12.50
2018-08-20T00:37:07.629Z,10.73
2018-08-20T00:39:37.445Z,8.93
2018-08-20T00:42:06.962Z,11.13
2018-08-20T00:44:36.785Z,8.53
2018-08-20T00:47:06.537Z,7.63
2018-08-20T00:49:36.164Z,9.70
2018-08-20T00:52:06.277Z,8.50
2018-08-20T00:54:36.155Z,9.00
2018-08-20T00:57:05.896Z,8.77
2018-08-20T00:59:35.524Z,8.37
2018-08-20T01:02:05.259Z,8.27
2018-08-20T01:04:34.613Z,8.53
2018-08-20T01:07:04.497Z,10.13
2018-08-20T01:09:34.045Z,9.13
2018-08-20T01:12:03.277Z,8.63
2018-08-20T01:14:32.780Z,8.90
2018-08-20T01:17:02.064Z,8.70
2018-08-20T01:19:31.247Z,8.00
2018-08-20T01:22:00.908Z,10.00
2018-08-20T01:24:30.172Z,7.10
2018-08-20T01:26:59.555Z,7.80
2018-08-20T01:29:28.905Z,7.10
2018-08-20T01:31:58.445Z,9.10
2018-08-20T01:34:27.913Z,8.20
2018-08-20T01:36:57.165Z,7.27
2018-08-20T01:39:26.376Z,8.30
2018-08-20T01:41:55.497Z,6.83
2018-08-20T01:44:24.895Z,9.43
2018-08-20T01:46:53.969Z,6.67
2018-08-20T01:49:23.198Z,5.80
2018-08-20T01:51:52.432Z,12.37
2018-08-20T01:54:22.067Z,5.60
2018-08-20T01:56:51.059Z,6.43
2018-08-20T01:59:20.873Z,5.83
2018-08-20T02:01:50.266Z,6.20
2018-08-20T02:04:19.378Z,5.83
2018-08-20T02:06:48.629Z,6.87
2018-08-20T02:09:17.811Z,5.00
2018-08-20T02:11:47.112Z,5.00
2018-08-20T02:14:16.581Z,2.90
2018-08-20T02:16:46.133Z,2.67
2018-08-20T02:19:15.228Z,2.40
2018-08-20T02:21:44.945Z,2.83
2018-08-20T02:24:14.037Z,2.60
2018-08-20T02:26:43.139Z,2.90
2018-08-20T02:29:12.725Z,1.57
2018-08-20T02:31:41.854Z,1.60
2018-08-20T02:34:11.280Z,1.40
2018-08-20T02:36:40.792Z,1.00
2018-08-20T02:39:13.328Z,0.83
2018-08-20T02:41:43.145Z,1.17
2018-08-20T02:44:13.997Z,0.90
2018-08-20T02:46:50.272Z,0.90
2018-08-20T02:49:22.752Z,0.70
2018-08-20T02:51:52.148Z,0.90
2018-08-20T02:54:21.347Z,0.57
2018-08-20T02:56:50.521Z,1.37
2018-08-20T02:59:20.372Z,0.60
2018-08-20T03:01:49.661Z,0.70
2018-08-20T03:04:19.241Z,1.60
2018-08-20T03:06:48.562Z,0.70
2018-08-20T03:09:17.870Z,0.77
2018-08-20T03:11:47.460Z,2.77
2018-08-20T03:14:16.543Z,0.60
2018-08-20T03:16:45.626Z,1.10
2018-08-20T03:19:14.973Z,0.80
2018-08-20T03:21:44.259Z,2.10
2018-08-20T03:24:13.475Z,1.40
2018-08-20T03:26:42.882Z,1.10
2018-08-20T03:29:12.169Z,1.20
2018-08-20T03:31:41.412Z,0.93
2018-08-20T03:34:10.812Z,0.90
2018-08-20T03:36:40.091Z,2.30
2018-08-20T03:39:09.206Z,2.53
2018-08-20T03:41:38.506Z,1.30
2018-08-20T03:44:07.880Z,1.40
2018-08-20T03:46:37.088Z,2.10
2018-08-20T03:49:06.779Z,2.30
2018-08-20T03:51:36.352Z,3.40
2018-08-20T03:54:06.247Z,3.47
2018-08-20T03:56:36.055Z,4.70
2018-08-20T03:59:05.846Z,2.67
2018-08-20T04:01:35.679Z,2.90
2018-08-20T04:04:05.766Z,2.63
2018-08-20T04:06:35.324Z,3.17
2018-08-20T04:09:05.289Z,2.63
2018-08-20T04:11:35.335Z,2.83
2018-08-20T04:14:05.060Z,2.63
2018-08-20T04:16:34.446Z,3.20
2018-08-20T04:19:07.049Z,3.33
2018-08-20T04:21:37.242Z,3.20
2018-08-20T04:24:07.105Z,4.07
2018-08-20T04:26:36.542Z,3.43
2018-08-20T04:29:06.416Z,3.80
2018-08-20T04:31:36.332Z,4.10
2018-08-20T04:34:06.254Z,7.13
2018-08-20T04:36:35.730Z,5.97
2018-08-20T04:39:06.645Z,8.37
2018-08-20T04:41:36.446Z,6.30
2018-08-20T04:44:06.871Z,5.60
2018-08-20T04:46:36.308Z,5.70
2018-08-20T04:49:05.894Z,6.17
2018-08-20T04:51:35.823Z,7.17
2018-08-20T04:54:05.539Z,4.57
2018-08-20T04:56:34.998Z,5.07
2018-08-20T04:59:04.869Z,4.80
2018-08-20T05:01:34.908Z,5.13
2018-08-20T05:04:04.842Z,5.93
2018-08-20T05:06:34.784Z,6.20
2018-08-20T05:09:04.656Z,4.43
2018-08-20T05:11:34.503Z,4.50
2018-08-20T05:14:05.389Z,5.07
2018-08-20T05:16:34.954Z,5.00
2018-08-20T05:19:04.653Z,4.63
2018-08-20T05:21:34.494Z,5.10
2018-08-20T05:24:04.822Z,9.23
2018-08-20T05:26:34.261Z,6.60
2018-08-20T05:29:04.302Z,4.67
2018-08-20T05:31:33.790Z,4.70
2018-08-20T05:34:04.539Z,4.67
2018-08-20T05:36:34.367Z,4.27
2018-08-20T05:39:04.275Z,4.37
2018-08-20T05:41:33.654Z,5.20
2018-08-20T05:44:03.301Z,4.80
2018-08-20T05:46:33.024Z,5.13
2018-08-20T05:49:02.664Z,4.33
2018-08-20T05:51:32.561Z,4.03
2018-08-20T05:54:02.655Z,3.70
2018-08-20T05:56:32.241Z,4.17
2018-08-20T05:59:02.103Z,7.50
2018-08-20T06:01:31.462Z,3.40
2018-08-20T06:04:01.029Z,3.30
2018-08-20T06:06:30.970Z,3.60
2018-08-20T06:09:00.353Z,3.50
2018-08-20T06:11:29.754Z,6.93
2018-08-20T06:13:59.428Z,4.80
2018-08-20T06:16:28.905Z,4.10
2018-08-20T06:18:58.417Z,3.70
2018-08-20T06:21:27.999Z,3.93
2018-08-20T06:23:57.583Z,3.50
2018-08-20T06:26:27.191Z,2.93
2018-08-20T06:28:56.659Z,3.87
2018-08-20T06:31:26.132Z,4.23
2018-08-20T06:33:55.507Z,5.07
2018-08-20T06:36:25.251Z,5.27
2018-08-20T06:38:54.648Z,6.07
2018-08-20T06:41:24.261Z,5.10
2018-08-20T06:43:53.841Z,7.07
2018-08-20T06:46:23.179Z,5.67
2018-08-20T06:48:52.451Z,4.20
2018-08-20T06:51:22.166Z,5.30
2018-08-20T06:53:51.934Z,4.80
2018-08-20T06:56:21.693Z,4.80
2018-08-20T06:58:51.461Z,4.80
2018-08-20T07:01:20.957Z,4.43
2018-08-20T07:03:50.379Z,3.63
2018-08-20T07:06:20.107Z,4.03
2018-08-20T07:08:49.645Z,3.80
2018-08-20T07:11:19.333Z,5.90
2018-08-20T07:13:49.284Z,6.30
2018-08-20T07:16:18.728Z,4.13
2018-08-20T07:18:48.123Z,5.10
2018-08-20T07:21:17.983Z,4.53
2018-08-20T07:23:47.865Z,3.40
2018-08-20T07:26:17.253Z,3.83
2018-08-20T07:28:47.034Z,3.50
2018-08-20T07:31:16.362Z,3.50
2018-08-20T07:33:45.852Z,3.00
2018-08-20T07:36:15.425Z,3.20
2018-08-20T07:38:44.880Z,3.07
2018-08-20T07:41:14.332Z,2.60
2018-08-20T07:43:43.916Z,3.17
2018-08-20T07:46:13.278Z,3.23
2018-08-20T07:48:42.708Z,3.90
2018-08-20T07:51:12.752Z,2.90
2018-08-20T07:53:42.140Z,2.87
2018-08-20T07:56:11.586Z,2.23
2018-08-20T07:58:41.248Z,2.93
2018-08-20T08:01:10.765Z,2.93
2018-08-20T08:03:40.321Z,2.50
2018-08-20T08:06:09.982Z,3.00
2018-08-20T08:08:39.426Z,3.83
2018-08-20T08:11:08.996Z,2.63
2018-08-20T08:13:38.921Z,6.83
2018-08-20T08:16:08.621Z,2.87
2018-08-20T08:18:38.040Z,5.03
2018-08-20T08:21:07.476Z,2.33
2018-08-20T08:23:36.881Z,5.23
2018-08-20T08:26:07.188Z,3.50
2018-08-20T08:28:37.226Z,4.87
2018-08-20T08:31:07.018Z,2.07
2018-08-20T08:33:36.749Z,1.87
2018-08-20T08:36:06.591Z,2.63
2018-08-20T08:38:36.081Z,1.50
2018-08-20T08:41:05.880Z,3.67
2018-08-20T08:43:36.615Z,2.33
2018-08-20T08:46:06.943Z,2.90
2018-08-20T08:48:36.830Z,3.23
2018-08-20T08:51:06.571Z,4.83
2018-08-20T08:53:36.567Z,3.83
2018-08-20T08:56:06.570Z,5.43
2018-08-20T08:58:36.299Z,4.33
2018-08-20T09:01:06.469Z,6.53
2018-08-20T09:03:36.221Z,9.47
2018-08-20T09:06:06.509Z,8.10
2018-08-20T09:08:36.486Z,7.23
2018-08-20T09:11:06.010Z,6.60
2018-08-20T09:13:35.973Z,4.87
2018-08-20T09:16:05.726Z,6.17
2018-08-20T09:18:35.527Z,8.60
2018-08-20T09:21:05.607Z,4.90
2018-08-20T09:23:35.290Z,4.57
2018-08-20T09:26:05.030Z,9.10
2018-08-20T09:28:34.792Z,7.03
2018-08-20T09:31:04.506Z,7.00
2018-08-20T09:33:34.238Z,6.47
2018-08-20T09:36:04.351Z,6.50
2018-08-20T09:38:33.729Z,7.17
2018-08-20T09:41:03.465Z,5.40
2018-08-20T09:43:33.352Z,7.03
2018-08-20T09:46:03.203Z,7.93
2018-08-20T09:48:33.164Z,7.10
2018-08-20T09:51:02.847Z,6.37
2018-08-20T09:53:32.430Z,6.77
2018-08-20T09:56:02.193Z,6.13
2018-08-20T09:58:31.941Z,4.93
2018-08-20T10:01:01.327Z,6.33
2018-08-20T10:03:30.776Z,6.90
2018-08-20T10:06:00.231Z,7.43
2018-08-20T10:08:29.659Z,7.73
2018-08-20T10:10:59.008Z,3.90
2018-08-20T10:13:28.751Z,6.10
2018-08-20T10:15:58.124Z,5.10
2018-08-20T10:18:27.543Z,5.20
2018-08-20T10:20:57.437Z,4.03
2018-08-20T10:23:27.138Z,5.97
2018-08-20T10:25:56.473Z,4.80
2018-08-20T10:28:26.330Z,7.03
2018-08-20T10:30:55.698Z,5.10
2018-08-20T10:33:25.416Z,4.17
2018-08-20T10:35:54.951Z,5.37
2018-08-20T10:38:24.466Z,4.80
2018-08-20T10:40:54.167Z,3.70
2018-08-20T10:43:23.754Z,4.27
2018-08-20T10:45:58.429Z,4.87
2018-08-20T10:48:28.194Z,4.53
2018-08-20T10:50:57.867Z,2.77
2018-08-20T10:53:27.312Z,3.67
2018-08-20T10:55:57.118Z,4.50
2018-08-20T10:58:26.563Z,4.23
2018-08-20T11:00:56.084Z,2.90
2018-08-20T11:03:25.832Z,2.60
2018-08-20T11:05:55.532Z,1.83
2018-08-20T11:08:24.846Z,3.77
2018-08-20T11:10:54.837Z,5.60
2018-08-20T11:13:24.306Z,3.97
2018-08-20T11:15:54.127Z,3.90
2018-08-20T11:18:23.757Z,2.77
2018-08-20T11:20:53.159Z,2.87
2018-08-20T11:23:22.420Z,2.20
2018-08-20T11:25:51.911Z,2.40
2018-08-20T11:28:21.358Z,1.90
2018-08-20T11:30:50.765Z,2.13
2018-08-20T11:33:20.382Z,1.77
2018-08-20T11:35:49.657Z,4.47
2018-08-20T11:38:19.031Z,1.50
2018-08-20T11:40:49.148Z,2.43
2018-08-20T11:43:18.582Z,2.20
2018-08-20T11:45:47.796Z,2.63
2018-08-20T11:48:17.415Z,7.20
2018-08-20T11:50:46.835Z,2.17
2018-08-20T11:53:16.215Z,2.10
2018-08-20T11:55:45.822Z,3.80
2018-08-20T11:58:15.233Z,3.60
2018-08-20T12:00:44.632Z,3.53
2018-08-20T12:03:14.436Z,3.47
2018-08-20T12:05:44.024Z,4.93
2018-08-20T12:08:13.395Z,2.77
2018-08-20T12:10:43.373Z,5.37
2018-08-20T12:13:13.032Z,7.67
2018-08-20T12:15:42.618Z,4.83
2018-08-20T12:18:12.223Z,4.23
2018-08-20T12:20:41.951Z,3.83
2018-08-20T12:23:11.421Z,6.37
2018-08-20T12:25:40.950Z,4.43
2018-08-20T12:28:10.337Z,2.83
2018-08-20T12:30:39.673Z,4.50
2018-08-20T12:33:09.412Z,3.70
2018-08-20T12:35:38.697Z,3.27
2018-08-20T12:38:08.227Z,5.33
2018-08-20T12:40:37.814Z,4.73
2018-08-20T12:43:07.243Z,2.37
2018-08-20T12:45:37.144Z,3.33
2018-08-20T12:48:06.873Z,4.00
2018-08-20T12:50:36.665Z,4.00
2018-08-20T12:53:07.122Z,5.27
2018-08-20T12:55:36.711Z,5.23
2018-08-20T12:58:06.543Z,4.33
2018-08-20T13:00:36.325Z,3.53
2018-08-20T13:03:07.278Z,4.67
2018-08-20T13:05:36.778Z,2.67
2018-08-20T13:08:07.697Z,3.40
2018-08-20T13:10:37.281Z,5.17
2018-08-20T13:13:06.921Z,4.27
2018-08-20T13:15:36.624Z,2.70
2018-08-20T13:18:06.644Z,3.23
2018-08-20T13:20:36.364Z,4.73
2018-08-20T13:23:07.226Z,2.50
2018-08-20T13:25:37.942Z,2.77
2018-08-20T13:28:07.349Z,3.73
2018-08-20T13:30:36.894Z,2.93
2018-08-20T13:33:06.791Z,1.77
2018-08-20T13:35:36.292Z,5.10
2018-08-20T13:38:05.936Z,1.87
2018-08-20T13:40:36.116Z,1.73
2018-08-20T13:43:05.633Z,4.20
2018-08-20T13:45:35.216Z,4.20
2018-08-20T13:48:04.937Z,2.10
2018-08-20T13:50:34.395Z,3.83
2018-08-20T13:53:03.906Z,2.50
2018-08-20T13:55:33.915Z,2.97
2018-08-20T13:58:04.572Z,3.47
2018-08-20T14:00:34.505Z,4.60
2018-08-20T14:03:03.992Z,3.63
2018-08-20T14:05:33.879Z,3.97
2018-08-20T14:08:03.793Z,2.00
2018-08-20T14:10:33.817Z,1.80
2018-08-20T14:13:04.148Z,2.03
2018-08-20T14:15:33.697Z,3.30
2018-08-20T14:18:04.125Z,3.53
2018-08-20T14:20:33.682Z,2.47
2018-08-20T14:23:04.745Z,2.20
2018-08-20T14:25:36.032Z,3.50
2018-08-20T14:28:05.692Z,3.47
2018-08-20T14:30:36.813Z,1.73
2018-08-20T14:33:06.527Z,4.03
2018-08-20T14:35:36.387Z,5.10
2018-08-20T14:38:05.914Z,4.97
2018-08-20T14:40:36.082Z,3.23
2018-08-20T14:43:05.565Z,3.10
2018-08-20T14:45:40.189Z,2.37
2018-08-20T14:48:09.981Z,2.77
2018-08-20T14:50:39.314Z,2.63
2018-08-20T14:53:08.696Z,5.17
2018-08-20T14:55:38.157Z,2.13
2018-08-20T14:58:07.513Z,4.37
2018-08-20T15:00:36.967Z,2.87
2018-08-20T15:03:07.659Z,6.03
2018-08-20T15:05:37.431Z,1.93
2018-08-20T15:08:06.996Z,3.17
2018-08-20T15:10:36.861Z,3.60
2018-08-20T15:13:06.963Z,4.20
2018-08-20T15:15:37.714Z,3.77
2018-08-20T15:18:07.238Z,2.67
2018-08-20T15:20:37.227Z,3.00
2018-08-20T15:23:07.123Z,1.73
2018-08-20T15:25:36.990Z,2.10
2018-08-20T15:28:06.742Z,2.30
2018-08-20T15:30:36.378Z,2.93
2018-08-20T15:33:06.086Z,1.93
2018-08-20T15:35:36.182Z,1.53
2018-08-20T15:38:05.945Z,1.90
2018-08-20T15:40:35.752Z,2.13
2018-08-20T15:43:05.245Z,3.90
2018-08-20T15:45:35.095Z,2.13
2018-08-20T15:48:04.673Z,1.87
2018-08-20T15:50:34.387Z,2.30
2018-08-20T15:53:05.179Z,4.67
2018-08-20T15:55:34.671Z,1.90
2018-08-20T15:58:04.495Z,1.27
2018-08-20T16:00:34.363Z,1.93
2018-08-20T16:03:03.960Z,1.37
2018-08-20T16:05:33.534Z,1.00
2018-08-20T16:08:03.266Z,3.73
2018-08-20T16:10:32.685Z,1.43
2018-08-20T16:13:02.171Z,2.03
2018-08-20T16:15:31.884Z,3.30
2018-08-20T16:18:01.250Z,2.07
2018-08-20T16:20:30.773Z,3.93
2018-08-20T16:23:00.396Z,1.63
2018-08-20T16:25:29.811Z,1.63
2018-08-20T16:27:59.161Z,2.23
2018-08-20T16:30:28.785Z,0.80
2018-08-20T16:32:58.219Z,2.27
2018-08-20T16:35:27.725Z,2.40
2018-08-20T16:37:57.326Z,2.33
2018-08-20T16:40:26.738Z,2.93
2018-08-20T16:42:56.131Z,2.60
2018-08-20T16:45:25.931Z,3.53
2018-08-20T16:47:55.272Z,3.93
2018-08-20T16:50:24.679Z,1.23
2018-08-20T16:52:54.566Z,2.60
2018-08-20T16:55:25.241Z,3.80
2018-08-20T16:57:54.959Z,1.17
2018-08-20T17:00:24.511Z,3.40
2018-08-20T17:02:53.807Z,4.90
2018-08-20T17:05:23.344Z,3.23
2018-08-20T17:07:52.794Z,4.20
2018-08-20T17:10:22.296Z,3.63
2018-08-20T17:12:51.639Z,3.60
2018-08-20T17:15:22.149Z,1.40
2018-08-20T17:17:51.513Z,3.07
2018-08-20T17:20:20.969Z,3.07
2018-08-20T17:22:50.426Z,2.53
2018-08-20T17:25:19.982Z,3.23
2018-08-20T17:27:53.149Z,4.60
2018-08-20T17:30:23.959Z,5.90
2018-08-20T17:32:53.309Z,1.97
2018-08-20T17:35:23.138Z,4.13
2018-08-20T17:37:53.847Z,3.53
2018-08-20T17:40:23.255Z,6.10
2018-08-20T17:42:52.653Z,2.93
2018-08-20T17:45:22.358Z,4.43
2018-08-20T17:47:51.679Z,2.43
2018-08-20T17:50:34.099Z,3.47
2018-08-20T17:53:03.547Z,4.03
2018-08-20T17:55:32.989Z,3.47
2018-08-20T17:58:02.506Z,3.87
2018-08-20T18:00:39.157Z,3.43
2018-08-20T18:03:22.616Z,4.33
2018-08-20T18:05:55.958Z,4.07
2018-08-20T18:08:26.783Z,2.67
2018-08-20T18:10:56.437Z,3.47
2018-08-20T18:13:57.795Z,3.20
2018-08-20T18:16:27.556Z,4.30
2018-08-20T18:18:56.685Z,4.60
2018-08-20T18:21:26.000Z,4.13
2018-08-20T18:23:55.271Z,3.97
2018-08-20T18:26:29.047Z,3.27
2018-08-20T18:28:58.389Z,2.90
2018-08-20T18:31:28.564Z,4.50
2018-08-20T18:33:57.752Z,4.63
2018-08-20T18:36:30.689Z,4.00
2018-08-20T18:39:17.661Z,2.50
2018-08-20T18:41:52.726Z,5.83
2018-08-20T18:44:23.552Z,2.07
2018-08-20T18:46:53.179Z,3.37
2018-08-20T18:49:23.364Z,2.97
2018-08-20T18:52:02.552Z,2.80
2018-08-20T18:54:37.140Z,2.90
2018-08-20T18:57:07.140Z,3.80
2018-08-20T18:59:37.721Z,6.63
2018-08-20T19:02:08.371Z,5.17
2018-08-20T19:04:47.090Z,6.17
2018-08-20T19:07:16.949Z,8.33
2018-08-20T19:09:49.158Z,5.07
2018-08-20T19:12:18.623Z,7.40
2018-08-20T19:14:48.350Z,5.97
2018-08-20T19:17:24.427Z,8.53
2018-08-20T19:19:53.810Z,8.47
2018-08-20T19:22:27.706Z,4.63
2018-08-20T19:24:57.036Z,8.57
2018-08-20T19:27:34.078Z,5.70
2018-08-20T19:30:13.917Z,6.80
2018-08-20T19:32:43.173Z,5.73
2018-08-20T19:35:12.513Z,5.37
2018-08-20T19:37:42.093Z,6.67
2018-08-20T19:40:11.751Z,5.57
2018-08-20T19:42:41.335Z,7.97
2018-08-20T19:45:12.847Z,5.40
2018-08-20T19:47:42.646Z,6.20
2018-08-20T19:50:13.270Z,6.40
2018-08-20T19:52:42.702Z,5.87
2018-08-20T19:55:13.823Z,5.27
2018-08-20T19:57:43.052Z,5.33
2018-08-20T20:00:14.353Z,7.33
2018-08-20T20:02:44.792Z,7.70
2018-08-20T20:05:15.589Z,9.10
2018-08-20T20:07:53.908Z,5.87
2018-08-20T20:10:23.338Z,7.73
2018-08-20T20:12:54.084Z,4.67
2018-08-20T20:15:24.173Z,8.30
2018-08-20T20:17:55.922Z,9.80
2018-08-20T20:20:25.674Z,8.97
2018-08-20T20:22:54.889Z,5.93
2018-08-20T20:25:24.214Z,9.10
2018-08-20T20:27:53.564Z,6.43
2018-08-20T20:30:23.250Z,10.47
2018-08-20T20:32:52.717Z,4.73
2018-08-20T20:35:21.978Z,5.87
2018-08-20T20:37:51.324Z,6.57
2018-08-20T20:40:21.613Z,10.13
2018-08-20T20:42:52.366Z,5.50
2018-08-20T20:45:22.397Z,9.13
2018-08-20T20:47:51.439Z,6.87
2018-08-20T20:50:21.711Z,9.33
2018-08-20T20:52:51.064Z,9.20
2018-08-20T20:55:20.155Z,8.70
2018-08-20T20:57:49.439Z,7.83
2018-08-20T21:00:19.070Z,8.60
2018-08-20T21:02:48.815Z,4.37
2018-08-20T21:05:17.934Z,9.03
2018-08-20T21:07:47.349Z,7.73
2018-08-20T21:10:16.530Z,8.23
2018-08-20T21:12:45.580Z,5.20
2018-08-20T21:15:14.943Z,5.40
2018-08-20T21:17:44.485Z,6.73
2018-08-20T21:20:14.409Z,7.73
2018-08-20T21:22:44.103Z,9.27
2018-08-20T21:25:13.475Z,7.37
2018-08-20T21:27:43.081Z,7.27
2018-08-20T21:30:12.829Z,6.23
2018-08-20T21:32:42.315Z,6.50
2018-08-20T21:35:11.613Z,4.10
2018-08-20T21:37:41.389Z,4.90
2018-08-20T21:40:15.078Z,7.90
2018-08-20T21:42:44.542Z,6.27
2018-08-20T21:45:13.949Z,12.27
2018-08-20T21:47:43.779Z,6.97
2018-08-20T21:50:13.471Z,7.60
2018-08-20T21:52:42.852Z,7.63
2018-08-20T21:55:12.220Z,6.90
2018-08-20T21:57:46.133Z,7.93
2018-08-20T22:00:16.961Z,7.63
2018-08-20T22:02:54.497Z,7.10
2018-08-20T22:05:24.759Z,9.57
2018-08-20T22:07:56.979Z,3.47
2018-08-20T22:10:27.567Z,7.43
2018-08-20T22:12:57.095Z,3.67
2018-08-20T22:15:26.335Z,4.77
2018-08-20T22:17:55.377Z,4.07
2018-08-20T22:20:25.053Z,6.30
2018-08-20T22:22:54.532Z,6.80
2018-08-20T22:25:24.564Z,10.33
2018-08-20T22:27:56.371Z,4.63
2018-08-20T22:30:26.089Z,4.93
2018-08-20T22:32:55.422Z,8.53
2018-08-20T22:35:26.456Z,7.63
2018-08-20T22:37:55.505Z,8.47
2018-08-20T22:40:24.924Z,7.50
2018-08-20T22:42:58.656Z,5.80
2018-08-20T22:45:28.154Z,8.33
2018-08-20T22:47:57.577Z,6.53
2018-08-20T22:50:38.008Z,7.80
2018-08-20T22:53:07.936Z,7.43
2018-08-20T22:55:37.734Z,15.03
2018-08-20T22:58:10.963Z,8.17
2018-08-20T23:00:40.270Z,5.83
2018-08-20T23:03:09.842Z,5.97
2018-08-20T23:05:39.626Z,9.80
2018-08-20T23:08:13.957Z,7.07
2018-08-20T23:10:44.101Z,8.30
2018-08-20T23:13:13.212Z,9.77
2018-08-20T23:15:42.325Z,6.90
2018-08-20T23:18:11.885Z,5.07
2018-08-20T23:20:41.701Z,8.47
2018-08-20T23:23:11.218Z,5.90
2018-08-20T23:25:40.703Z,9.30
2018-08-20T23:28:10.137Z,7.93
2018-08-20T23:30:40.335Z,6.87
2018-08-20T23:33:10.045Z,5.13
2018-08-20T23:35:39.756Z,9.23
2018-08-20T23:38:09.202Z,8.53
2018-08-20T23:40:39.069Z,8.03
2018-08-20T23:43:08.808Z,8.20
2018-08-20T23:45:38.377Z,8.67
2018-08-20T23:48:07.883Z,5.87
2018-08-20T23:50:37.772Z,7.93
2018-08-20T23:53:07.546Z,7.97
2018-08-20T23:55:37.442Z,9.07
2018-08-20T23:58:07.071Z,8.77
